Acadiana Regional Airport
KARA : rendu visible

Aérodrome :











RETROUVEZ-NOUS SUR...

 
LOGIN :

S'inscrire | Disclaimer

   EN    FR    IT 

 









Légende :    VFR   VFR Marginal   IFR   IFR Intensif   IFR Très Intensif
Visi : 
Plafond : 
>= 8 km
>= 3000ft
5 à 8 km
1000 à 3000 ft
1500m à 5 km
500 à 1000 ft
800 à 1500m
200 à 500 ft
< 800m
< 200 ft
Symboles :   Orages  Brouillard  Fortes neiges  Fortes précipitations  Vent > 20 kt






- Altitude de l'aérodrome : 24 ft


KARA - Acadiana Regional

DERNIER METAR :
  • 100702Z AUTO 18008KT 3SM BR OVC002 22/22 A2994 RMK AO2 T02220217

METARs EXPIRÉS :
  • 100653Z AUTO 18009KT 1SM BR VV002 21/21 A2994 RMK AO2 SLP137 T02110211
  • 100644Z AUTO 18006KT 3/4SM BR VV002 21/21 A2994 RMK AO2 T02110211
  • 100634Z AUTO 18010KT 1SM BR OVC002 21/21 A2994 RMK AO2 T02110211
  • 100624Z AUTO 18009KT 2SM BR OVC002 22/22 A2994 RMK AO2 T02170217
  • 100600Z AUTO 18010KT 1 1/4SM BR OVC002 22/22 A2993 RMK AO2 T02170217
  • 100553Z AUTO 17012KT 2SM BR OVC002 22/22 A2993 RMK AO2 SLP135 T02170217 10222 20211 402610133 58006
  • 100543Z AUTO 17012KT 3SM BR OVC002 22/22 A2993 RMK AO2 T02170217
  • 100533Z AUTO 17011KT 2 1/2SM BR OVC002 22/22 A2994 RMK AO2 T02170217
  • 100453Z AUTO 17010KT 6SM BR OVC003 22/22 A2995 RMK AO2 SLP140 T02170217
  • 100433Z AUTO 17009KT 5SM BR OVC004 21/21 A2995 RMK AO2 T02110211

TAF KARA
Valide du 10 à 07h jusqu'au 11 à 06h UTC


100655Z 1007/1106 17010KT 2SM BR VCSH OVC006
TEMPO 1007/1011 1/2SM FG VV002
FM101200 33010KT 6SM -SHRA OVC008
FM101600 36015G23KT 6SM -SHRA OVC008
FM102000 03021G30KT 6SM -SHRA OVC008



MET'MAP, la Météo Aéronautique d'un coup d'oeil ! - Copyright ORBIFLY Décembre 2007 - Disclaimer

ORBIFLY MET'MAP TEAM :

Programmation & Développement : Alexandra Zaïnal
Sur une idée originale de : Baudouin d'Aumeries
Assistance à la programmation : Marc-Olivier Méhu
Soutien technique & logistique : Manuel Goepfert

Contact : metmap@orbifly.com




SOURCES & CREDITS :

   NOAA       Earth
Advisory